RYR24TQ LFBI-LFBI
Flight info
| Callsign | RYR24TQ |
|---|---|
| Flight time | 0h 28m |
| Altitude | 13000 |
| Route | BALAN DCT IBI21 |
| Aircraft | B738/M-SDE2E3FGHIRWXY/LB1 |
Departure
| Time | 2026-04-27 23:07 |
|---|---|
| Airport | Poitiers-Biard Airport (LFBI) |
Arrival
| Time | 2026-04-27 23:35 |
|---|---|
| Airport | Poitiers-Biard Airport (LFBI) |
| Time | Latitude | Longitude | Altitude | Speed | Heading |
|---|---|---|---|---|---|
| 2026-04-27 22:54 | 46.58683 | 0.31084 | 400 ft | 0 kts | 256° |
| 2026-04-27 23:00 | 46.58682 | 0.31084 | 400 ft | 0 kts | 256° |
| 2026-04-27 23:01 | 46.58670 | 0.31021 | 397 ft | 9 kts | 237° |
| 2026-04-27 23:01 | 46.58629 | 0.30923 | 398 ft | 14 kts | 281° |
| 2026-04-27 23:01 | 46.58681 | 0.30802 | 399 ft | 14 kts | 305° |
| 2026-04-27 23:01 | 46.58715 | 0.30680 | 399 ft | 13 kts | 250° |
| 2026-04-27 23:02 | 46.58637 | 0.30593 | 396 ft | 17 kts | 210° |
| 2026-04-27 23:02 | 46.58528 | 0.30501 | 392 ft | 18 kts | 210° |
| 2026-04-27 23:02 | 46.58421 | 0.30408 | 393 ft | 18 kts | 211° |
| 2026-04-27 23:02 | 46.58317 | 0.30319 | 392 ft | 17 kts | 211° |
| 2026-04-27 23:03 | 46.58219 | 0.30234 | 391 ft | 16 kts | 211° |
| 2026-04-27 23:03 | 46.58121 | 0.30153 | 392 ft | 16 kts | 210° |
| 2026-04-27 23:03 | 46.58028 | 0.30075 | 391 ft | 15 kts | 210° |
| 2026-04-27 23:03 | 46.57952 | 0.30026 | 390 ft | 6 kts | 204° |
| 2026-04-27 23:04 | 46.57953 | 0.29997 | 390 ft | 3 kts | 347° |
| 2026-04-27 23:04 | 46.57974 | 0.30016 | 390 ft | 5 kts | 34° |
| 2026-04-27 23:04 | 46.57993 | 0.30034 | 390 ft | 0 kts | 32° |
| 2026-04-27 23:06 | 46.57994 | 0.30036 | 390 ft | 3 kts | 32° |
| 2026-04-27 23:07 | 46.58285 | 0.30289 | 392 ft | 97 kts | 30° |
| 2026-04-27 23:07 | 46.59123 | 0.31013 | 435 ft | 178 kts | 31° |
| 2026-04-27 23:07 | 46.60304 | 0.32052 | 1127 ft | 204 kts | 31° |
| 2026-04-27 23:07 | 46.61554 | 0.33115 | 2195 ft | 214 kts | 30° |
| 2026-04-27 23:08 | 46.62745 | 0.34107 | 3096 ft | 176 kts | 31° |
| 2026-04-27 23:08 | 46.63556 | 0.35307 | 3646 ft | 166 kts | 68° |
| 2026-04-27 23:08 | 46.63587 | 0.36900 | 3968 ft | 161 kts | 111° |
| 2026-04-27 23:08 | 46.63039 | 0.38390 | 4023 ft | 179 kts | 120° |
| 2026-04-27 23:09 | 46.62370 | 0.39987 | 4022 ft | 192 kts | 120° |
| 2026-04-27 23:09 | 46.61606 | 0.41600 | 3999 ft | 195 kts | 135° |
| 2026-04-27 23:09 | 46.60404 | 0.42428 | 3996 ft | 194 kts | 175° |
| 2026-04-27 23:09 | 46.59104 | 0.42003 | 4002 ft | 193 kts | 207° |
| 2026-04-27 23:10 | 46.57933 | 0.41010 | 4013 ft | 197 kts | 211° |
| 2026-04-27 23:10 | 46.56763 | 0.39968 | 4013 ft | 199 kts | 211° |
| 2026-04-27 23:10 | 46.55581 | 0.38902 | 4004 ft | 201 kts | 211° |
| 2026-04-27 23:10 | 46.54401 | 0.37836 | 4001 ft | 201 kts | 211° |
| 2026-04-27 23:11 | 46.53200 | 0.36752 | 3992 ft | 202 kts | 211° |
| 2026-04-27 23:11 | 46.52005 | 0.35673 | 4002 ft | 202 kts | 211° |
| 2026-04-27 23:11 | 46.50811 | 0.34595 | 4005 ft | 202 kts | 211° |
| 2026-04-27 23:11 | 46.49617 | 0.33521 | 3998 ft | 202 kts | 211° |
| 2026-04-27 23:12 | 46.48436 | 0.32456 | 3995 ft | 201 kts | 211° |
| 2026-04-27 23:12 | 46.47247 | 0.31385 | 3950 ft | 202 kts | 211° |
| 2026-04-27 23:12 | 46.46046 | 0.30304 | 3829 ft | 202 kts | 211° |
| 2026-04-27 23:12 | 46.44859 | 0.29236 | 3706 ft | 200 kts | 211° |
| 2026-04-27 23:13 | 46.43675 | 0.28172 | 3592 ft | 200 kts | 211° |
| 2026-04-27 23:13 | 46.42531 | 0.27063 | 3573 ft | 202 kts | 224° |
| 2026-04-27 23:13 | 46.41968 | 0.25267 | 3564 ft | 195 kts | 274° |
| 2026-04-27 23:13 | 46.42477 | 0.23586 | 3513 ft | 179 kts | 324° |
| 2026-04-27 23:14 | 46.43589 | 0.23154 | 3488 ft | 167 kts | 11° |
| 2026-04-27 23:14 | 46.44764 | 0.23101 | 3298 ft | 179 kts | 335° |
| 2026-04-27 23:14 | 46.45715 | 0.21938 | 3190 ft | 180 kts | 319° |
| 2026-04-27 23:14 | 46.46602 | 0.20676 | 2977 ft | 175 kts | 333° |
| 2026-04-27 23:15 | 46.47699 | 0.20534 | 2809 ft | 156 kts | 29° |
| 2026-04-27 23:15 | 46.48503 | 0.21614 | 2645 ft | 163 kts | 43° |
| 2026-04-27 23:15 | 46.49438 | 0.22570 | 2422 ft | 168 kts | 33° |
| 2026-04-27 23:15 | 46.50418 | 0.23487 | 2181 ft | 166 kts | 33° |
| 2026-04-27 23:16 | 46.51383 | 0.24351 | 1964 ft | 158 kts | 32° |
| 2026-04-27 23:16 | 46.52287 | 0.25137 | 1795 ft | 142 kts | 32° |
| 2026-04-27 23:16 | 46.53103 | 0.25850 | 1606 ft | 133 kts | 32° |
| 2026-04-27 23:16 | 46.53892 | 0.26549 | 1387 ft | 133 kts | 31° |
| 2026-04-27 23:17 | 46.54696 | 0.27220 | 1206 ft | 135 kts | 30° |
| 2026-04-27 23:17 | 46.55513 | 0.27930 | 1010 ft | 142 kts | 30° |
| 2026-04-27 23:17 | 46.56396 | 0.28672 | 772 ft | 149 kts | 29° |
| 2026-04-27 23:17 | 46.57280 | 0.29429 | 570 ft | 146 kts | 30° |
| 2026-04-27 23:18 | 46.58122 | 0.30146 | 393 ft | 135 kts | 30° |
| 2026-04-27 23:18 | 46.58955 | 0.30886 | 776 ft | 155 kts | 31° |
| 2026-04-27 23:18 | 46.59978 | 0.31824 | 1399 ft | 193 kts | 32° |
| 2026-04-27 23:18 | 46.61222 | 0.32903 | 2108 ft | 220 kts | 31° |
| 2026-04-27 23:19 | 46.62592 | 0.34117 | 2749 ft | 248 kts | 38° |
| 2026-04-27 23:19 | 46.63677 | 0.36204 | 3407 ft | 273 kts | 66° |
| 2026-04-27 23:19 | 46.63993 | 0.38808 | 3859 ft | 248 kts | 94° |
| 2026-04-27 23:19 | 46.63493 | 0.41047 | 3979 ft | 225 kts | 117° |
| 2026-04-27 23:20 | 46.62499 | 0.42715 | 3978 ft | 217 kts | 148° |
| 2026-04-27 23:20 | 46.61026 | 0.43305 | 4023 ft | 237 kts | 181° |
| 2026-04-27 23:20 | 46.59320 | 0.42620 | 4026 ft | 269 kts | 206° |
| 2026-04-27 23:20 | 46.57679 | 0.41306 | 4010 ft | 269 kts | 210° |
| 2026-04-27 23:21 | 46.56053 | 0.39918 | 4006 ft | 273 kts | 210° |
| 2026-04-27 23:21 | 46.54431 | 0.38519 | 4008 ft | 276 kts | 210° |
| 2026-04-27 23:21 | 46.52784 | 0.37099 | 3996 ft | 276 kts | 210° |
| 2026-04-27 23:21 | 46.51141 | 0.35682 | 3992 ft | 273 kts | 210° |
| 2026-04-27 23:22 | 46.49560 | 0.34319 | 3992 ft | 271 kts | 210° |
| 2026-04-27 23:22 | 46.47885 | 0.32873 | 3991 ft | 273 kts | 210° |
| 2026-04-27 23:22 | 46.46249 | 0.31459 | 4001 ft | 273 kts | 210° |
| 2026-04-27 23:22 | 46.44639 | 0.30066 | 3982 ft | 264 kts | 210° |
| 2026-04-27 23:23 | 46.43106 | 0.28697 | 3879 ft | 255 kts | 217° |
| 2026-04-27 23:23 | 46.42024 | 0.26769 | 3757 ft | 248 kts | 248° |
| 2026-04-27 23:23 | 46.41773 | 0.24379 | 3636 ft | 237 kts | 280° |
| 2026-04-27 23:23 | 46.42309 | 0.22198 | 3561 ft | 224 kts | 298° |
| 2026-04-27 23:24 | 46.42999 | 0.20247 | 3435 ft | 212 kts | 300° |
| 2026-04-27 23:24 | 46.43663 | 0.18392 | 3295 ft | 202 kts | 300° |
| 2026-04-27 23:24 | 46.44502 | 0.16889 | 3135 ft | 183 kts | 333° |
| 2026-04-27 23:24 | 46.45634 | 0.16565 | 3044 ft | 158 kts | 16° |
| 2026-04-27 23:25 | 46.46508 | 0.17395 | 2931 ft | 153 kts | 47° |
| 2026-04-27 23:25 | 46.47332 | 0.18684 | 3009 ft | 189 kts | 47° |
| 2026-04-27 23:25 | 46.48216 | 0.20070 | 2829 ft | 179 kts | 47° |
| 2026-04-27 23:25 | 46.48999 | 0.21329 | 2684 ft | 165 kts | 48° |
| 2026-04-27 23:26 | 46.49773 | 0.22581 | 2309 ft | 167 kts | 46° |
| 2026-04-27 23:26 | 46.50611 | 0.23683 | 2052 ft | 156 kts | 37° |
| 2026-04-27 23:26 | 46.51504 | 0.24496 | 1839 ft | 148 kts | 31° |
| 2026-04-27 23:26 | 46.52390 | 0.25215 | 1619 ft | 142 kts | 31° |
| 2026-04-27 23:27 | 46.53179 | 0.25884 | 1551 ft | 121 kts | 32° |
| 2026-04-27 23:27 | 46.53882 | 0.26509 | 1367 ft | 116 kts | 33° |
| 2026-04-27 23:27 | 46.54621 | 0.27154 | 1212 ft | 129 kts | 30° |
| 2026-04-27 23:27 | 46.55428 | 0.27851 | 1085 ft | 140 kts | 30° |
| 2026-04-27 23:28 | 46.56274 | 0.28574 | 895 ft | 145 kts | 30° |
| 2026-04-27 23:28 | 46.57152 | 0.29323 | 671 ft | 148 kts | 30° |
| 2026-04-27 23:28 | 46.58038 | 0.30070 | 436 ft | 143 kts | 30° |
| 2026-04-27 23:28 | 46.58823 | 0.30762 | 411 ft | 118 kts | 31° |
| 2026-04-27 23:29 | 46.59637 | 0.31479 | 760 ft | 157 kts | 31° |
| 2026-04-27 23:29 | 46.60593 | 0.32371 | 1747 ft | 171 kts | 33° |
| 2026-04-27 23:29 | 46.61602 | 0.33302 | 2651 ft | 173 kts | 34° |
| 2026-04-27 23:29 | 46.62437 | 0.34657 | 3216 ft | 196 kts | 66° |
| 2026-04-27 23:30 | 46.62583 | 0.36706 | 3492 ft | 217 kts | 99° |
| 2026-04-27 23:30 | 46.61882 | 0.38660 | 3501 ft | 223 kts | 134° |
| 2026-04-27 23:30 | 46.60514 | 0.39746 | 3499 ft | 228 kts | 167° |
| 2026-04-27 23:30 | 46.58965 | 0.39574 | 3500 ft | 230 kts | 200° |
| 2026-04-27 23:31 | 46.57543 | 0.38515 | 3510 ft | 231 kts | 210° |
| 2026-04-27 23:31 | 46.56145 | 0.37337 | 3502 ft | 232 kts | 210° |
| 2026-04-27 23:31 | 46.54747 | 0.36138 | 3495 ft | 233 kts | 210° |
| 2026-04-27 23:31 | 46.53349 | 0.34932 | 3495 ft | 234 kts | 210° |
| 2026-04-27 23:32 | 46.51955 | 0.33722 | 3501 ft | 233 kts | 210° |
| 2026-04-27 23:32 | 46.50555 | 0.32507 | 3499 ft | 234 kts | 210° |
| 2026-04-27 23:32 | 46.49229 | 0.31197 | 3487 ft | 235 kts | 225° |
| 2026-04-27 23:32 | 46.48465 | 0.29194 | 3495 ft | 224 kts | 260° |
| 2026-04-27 23:33 | 46.48580 | 0.27039 | 3447 ft | 210 kts | 294° |
| 2026-04-27 23:33 | 46.49403 | 0.25382 | 3299 ft | 199 kts | 328° |
| 2026-04-27 23:33 | 46.50660 | 0.24822 | 3142 ft | 186 kts | 5° |
| 2026-04-27 23:33 | 46.51950 | 0.25150 | 2687 ft | 189 kts | 19° |
| 2026-04-27 23:34 | 46.53116 | 0.25825 | 2188 ft | 179 kts | 26° |
| 2026-04-27 23:34 | 46.54238 | 0.26728 | 1555 ft | 178 kts | 33° |
| 2026-04-27 23:34 | 46.55223 | 0.27676 | 1207 ft | 160 kts | 32° |
| 2026-04-27 23:34 | 46.56156 | 0.28452 | 883 ft | 148 kts | 30° |
| 2026-04-27 23:35 | 46.56966 | 0.29160 | 663 ft | 131 kts | 31° |
| 2026-04-27 23:35 | 46.57716 | 0.29800 | 475 ft | 118 kts | 30° |
| 2026-04-27 23:35 | 46.58389 | 0.30381 | 393 ft | 98 kts | 33° |
| 2026-04-27 23:35 | 46.58719 | 0.30663 | 399 ft | 34 kts | 29° |
| 2026-04-27 23:36 | 46.58911 | 0.30826 | 401 ft | 11 kts | 31° |
| 2026-04-27 23:36 | 46.58915 | 0.30830 | 401 ft | 0 kts | 31° |